Time;durP1;ratioP1;P1;durP2;ratioP2;P2;SDS_P1;SDS_P2;PMS_P1;PMS_P2;Temp;Humidity;BMP_temperature;BMP_pressure;BME280_temperature;BME280_humidity;BME280_pressure;Samples;Min_cycle;Max_cycle;Signal;HPM_P1;HPM_P2
2023/10/30 00:00:43;;;;;;;8.27;1.40;;;16.30;54.70;;;;;;5021002;28;20410;-54
2023/10/30 00:03:11;;;;;;;7.57;1.45;;;16.30;54.70;;;;;;5021597;28;20497;-52
2023/10/30 00:05:38;;;;;;;7.75;1.40;;;16.30;55.30;;;;;;5021793;28;20057;-51
2023/10/30 00:08:06;;;;;;;6.70;1.45;;;16.20;54.80;;;;;;5022494;28;20053;-50
2023/10/30 00:10:34;;;;;;;8.95;1.40;;;16.20;54.90;;;;;;5023287;28;20053;-53
2023/10/30 00:13:02;;;;;;;12.35;1.88;;;16.20;55.00;;;;;;5022180;28;20076;-53
2023/10/30 00:15:29;;;;;;;5.63;1.38;;;16.20;55.10;;;;;;5022656;28;20055;-52
2023/10/30 00:17:57;;;;;;;6.32;1.38;;;16.20;55.10;;;;;;5022929;28;20509;-50
2023/10/30 00:20:25;;;;;;;6.47;1.45;;;16.20;55.20;;;;;;5021659;28;20057;-49
2023/10/30 00:22:52;;;;;;;11.77;1.70;;;16.10;55.30;;;;;;5022965;28;20049;-53
2023/10/30 00:25:21;;;;;;;7.65;1.75;;;16.10;55.30;;;;;;5021859;28;20054;-55
2023/10/30 00:27:48;;;;;;;6.72;1.48;;;16.10;55.40;;;;;;5021578;28;20056;-52
2023/10/30 00:30:15;;;;;;;10.20;1.40;;;16.10;55.50;;;;;;5022613;28;20053;-50
2023/10/30 00:32:43;;;;;;;10.27;1.42;;;16.10;55.60;;;;;;5021625;28;20057;-54
2023/10/30 00:35:11;;;;;;;7.95;1.40;;;16.10;55.70;;;;;;5020347;28;20080;-55
2023/10/30 00:37:38;;;;;;;8.63;1.50;;;16.10;55.80;;;;;;5022226;28;20045;-53
2023/10/30 00:40:07;;;;;;;9.25;1.63;;;16.10;55.90;;;;;;5021761;28;20087;-50
2023/10/30 00:42:34;;;;;;;7.32;1.40;;;16.00;55.90;;;;;;5022116;28;20057;-47
2023/10/30 00:45:04;;;;;;;12.32;1.50;;;16.00;56.00;;;;;;5022124;28;20506;-51
2023/10/30 00:47:31;;;;;;;6.18;1.42;;;16.00;56.10;;;;;;5019825;28;20068;-49
2023/10/30 00:49:58;;;;;;;9.50;1.73;;;16.00;56.10;;;;;;5023040;28;20076;-52
2023/10/30 00:52:27;;;;;;;14.20;1.80;;;16.00;56.20;;;;;;5022519;28;20057;-56
2023/10/30 00:54:54;;;;;;;8.32;1.35;;;16.00;56.20;;;;;;5022366;28;20493;-54
2023/10/30 00:57:22;;;;;;;7.95;1.67;;;16.00;56.30;;;;;;5021156;28;20045;-56
2023/10/30 00:59:49;;;;;;;7.95;1.70;;;16.00;56.40;;;;;;5021492;28;20054;-55
2023/10/30 01:02:17;;;;;;;7.70;1.70;;;16.00;56.40;;;;;;5021068;28;20405;-56
2023/10/30 01:04:44;;;;;;;9.80;1.30;;;16.00;56.40;;;;;;5021055;28;20049;-55
2023/10/30 01:07:11;;;;;;;12.75;1.35;;;16.00;56.50;;;;;;5019338;28;20645;-56
2023/10/30 01:09:40;;;;;;;6.70;1.10;;;16.00;56.50;;;;;;5019980;28;20049;-56
2023/10/30 01:12:07;;;;;;;10.23;1.80;;;15.90;56.50;;;;;;5021654;28;20120;-56
2023/10/30 01:14:35;;;;;;;7.35;1.55;;;15.90;56.50;;;;;;5020769;28;20521;-56
2023/10/30 01:17:02;;;;;;;8.43;1.50;;;15.90;56.60;;;;;;5021389;28;20421;-56
2023/10/30 01:19:29;;;;;;;8.43;1.50;;;15.90;56.60;;;;;;5020996;28;20064;-56
2023/10/30 01:21:56;;;;;;;8.05;1.63;;;15.90;56.60;;;;;;5021799;28;20062;-55
2023/10/30 01:24:24;;;;;;;8.30;1.40;;;15.90;56.70;;;;;;5020963;28;20413;-56
2023/10/30 01:26:52;;;;;;;10.52;1.80;;;15.90;56.70;;;;;;5021547;28;20054;-55
2023/10/30 01:29:19;;;;;;;11.00;1.40;;;15.90;56.70;;;;;;5020274;28;20057;-56
2023/10/30 01:31:47;;;;;;;6.75;1.40;;;15.90;56.70;;;;;;5021255;28;20064;-56
2023/10/30 01:34:14;;;;;;;9.82;1.48;;;15.90;56.70;;;;;;5021172;28;20058;-56
2023/10/30 01:36:41;;;;;;;7.15;1.50;;;15.90;56.70;;;;;;5021407;28;20497;-58
2023/10/30 01:39:09;;;;;;;9.10;1.60;;;15.90;56.70;;;;;;5020558;28;20513;-53
2023/10/30 01:41:36;;;;;;;6.60;1.40;;;15.90;56.70;;;;;;5020690;28;20056;-56
2023/10/30 01:44:05;;;;;;;10.73;1.52;;;15.90;56.70;;;;;;5022234;28;20065;-57
2023/10/30 01:46:32;;;;;;;9.25;1.55;;;15.90;56.70;;;;;;5020975;28;20053;-56
2023/10/30 01:49:00;;;;;;;7.88;1.77;;;15.90;56.70;;;;;;5020678;28;20060;-56
2023/10/30 01:51:27;;;;;;;10.93;1.63;;;15.90;56.70;;;;;;5019579;28;20045;-57
2023/10/30 01:53:55;;;;;;;12.13;1.63;;;15.90;56.70;;;;;;5020746;28;20088;-58
2023/10/30 01:56:24;;;;;;;6.63;1.58;;;15.80;56.70;;;;;;5021403;28;20508;-55
2023/10/30 01:58:54;;;;;;;6.55;1.00;;;15.80;56.70;;;;;;5020184;28;20049;-56
2023/10/30 02:01:23;;;;;;;12.18;1.42;;;15.80;56.70;;;;;;5018672;28;20064;-56
2023/10/30 02:03:52;;;;;;;8.45;1.40;;;15.80;56.70;;;;;;5020372;28;20708;-56
2023/10/30 02:06:19;;;;;;;6.78;1.98;;;15.80;56.70;;;;;;5019652;28;20394;-56
2023/10/30 02:08:46;;;;;;;13.63;1.70;;;15.80;56.70;;;;;;5020023;28;20056;-56
2023/10/30 02:11:14;;;;;;;7.10;1.73;;;15.80;56.70;;;;;;5019924;28;20060;-58
2023/10/30 02:13:41;;;;;;;8.98;1.65;;;15.80;56.80;;;;;;5021294;28;20057;-56
2023/10/30 02:16:08;;;;;;;8.15;1.70;;;15.80;56.80;;;;;;5019519;28;20056;-55
2023/10/30 02:18:37;;;;;;;10.25;1.85;;;15.80;56.70;;;;;;5017072;28;20054;-56
2023/10/30 02:21:06;;;;;;;6.65;1.25;;;15.80;56.80;;;;;;5019582;28;20057;-57
2023/10/30 02:23:33;;;;;;;9.38;1.60;;;15.80;56.80;;;;;;5020514;28;20060;-55
2023/10/30 02:26:02;;;;;;;7.72;1.50;;;15.80;56.70;;;;;;5020310;28;20049;-55
2023/10/30 02:28:29;;;;;;;13.25;1.58;;;15.80;56.80;;;;;;5020833;28;20049;-56
2023/10/30 02:30:56;;;;;;;8.90;1.50;;;15.80;56.80;;;;;;5017733;28;20513;-56
2023/10/30 02:33:25;;;;;;;12.07;1.52;;;15.80;57.30;;;;;;5019838;28;20064;-55
2023/10/30 02:35:53;;;;;;;6.60;1.73;;;15.80;56.80;;;;;;5020516;28;20061;-56
2023/10/30 02:38:20;;;;;;;8.45;2.05;;;15.80;56.70;;;;;;5019985;28;20394;-57
2023/10/30 02:40:47;;;;;;;7.25;1.55;;;15.80;56.70;;;;;;5019052;28;20041;-56
2023/10/30 02:43:18;;;;;;;8.68;1.40;;;15.80;56.70;;;;;;5019266;28;20060;-57
2023/10/30 02:45:45;;;;;;;5.40;1.27;;;15.80;56.70;;;;;;5019070;28;20064;-56
2023/10/30 02:48:12;;;;;;;7.28;1.45;;;15.80;56.70;;;;;;5020365;28;20049;-56
2023/10/30 02:50:40;;;;;;;7.05;1.60;;;15.80;56.70;;;;;;5019193;28;20065;-56
2023/10/30 02:53:07;;;;;;;5.13;1.17;;;15.80;56.80;;;;;;5020444;28;20058;-56
2023/10/30 02:55:34;;;;;;;8.48;1.42;;;15.80;56.80;;;;;;5019761;28;20050;-56
2023/10/30 02:58:02;;;;;;;8.90;1.52;;;15.80;56.80;;;;;;5019493;28;20049;-57
2023/10/30 03:00:31;;;;;;;7.03;1.83;;;15.80;56.80;;;;;;5015744;28;20057;-57
2023/10/30 03:02:58;;;;;;;9.80;1.50;;;15.80;56.80;;;;;;5018278;28;20718;-57
2023/10/30 03:05:26;;;;;;;10.00;1.60;;;15.80;56.80;;;;;;5019749;28;20256;-56
2023/10/30 03:07:53;;;;;;;11.90;1.70;;;15.80;56.90;;;;;;5020340;28;20053;-57
2023/10/30 03:10:21;;;;;;;7.90;1.25;;;15.80;56.90;;;;;;5018596;28;20056;-58
2023/10/30 03:12:48;;;;;;;9.20;1.30;;;15.80;56.90;;;;;;5020385;28;20049;-52
2023/10/30 03:15:16;;;;;;;7.75;1.30;;;15.80;56.90;;;;;;5018242;28;20046;-53
2023/10/30 03:17:44;;;;;;;6.15;1.20;;;15.80;56.90;;;;;;5018911;28;20060;-52
2023/10/30 03:20:13;;;;;;;9.63;1.27;;;15.80;57.50;;;;;;5018636;28;20057;-50
2023/10/30 03:22:41;;;;;;;9.98;1.42;;;15.80;57.00;;;;;;5019270;28;20076;-52
2023/10/30 03:25:09;;;;;;;5.13;1.27;;;15.80;57.00;;;;;;5019510;28;20049;-54
2023/10/30 03:27:36;;;;;;;11.60;1.92;;;15.80;57.10;;;;;;5019310;28;20552;-55
2023/10/30 03:30:04;;;;;;;4.35;1.27;;;15.80;57.10;;;;;;5021197;28;20057;-49
2023/10/30 03:32:32;;;;;;;7.00;1.23;;;15.80;57.10;;;;;;5020604;28;20056;-50
2023/10/30 03:35:01;;;;;;;6.72;1.35;;;15.80;57.10;;;;;;5022335;28;20405;-53
2023/10/30 03:37:28;;;;;;;8.63;1.45;;;15.80;57.10;;;;;;5023276;28;20057;-52
2023/10/30 03:39:57;;;;;;;9.02;1.30;;;15.80;57.10;;;;;;5021884;28;20057;-54
2023/10/30 03:42:25;;;;;;;11.57;1.30;;;15.80;57.10;;;;;;5022732;28;20057;-49
2023/10/30 03:44:52;;;;;;;9.30;2.10;;;15.80;57.10;;;;;;5021234;28;20075;-52
2023/10/30 03:47:19;;;;;;;7.20;1.40;;;15.80;57.10;;;;;;5022213;28;20050;-52
2023/10/30 03:49:47;;;;;;;16.23;1.88;;;15.80;57.20;;;;;;5021226;28;20053;-49
2023/10/30 03:52:15;;;;;;;8.60;2.47;;;15.80;57.20;;;;;;5021585;28;20053;-55
2023/10/30 03:54:42;;;;;;;4.32;0.90;;;15.80;57.20;;;;;;5022273;28;20061;-54
2023/10/30 03:57:10;;;;;;;5.78;1.10;;;15.80;57.20;;;;;;5023207;28;20049;-55
2023/10/30 03:59:37;;;;;;;7.63;1.33;;;15.80;57.20;;;;;;5021680;28;20064;-49
2023/10/30 04:02:05;;;;;;;7.43;1.00;;;15.80;57.30;;;;;;5022451;28;20057;-53
2023/10/30 04:04:32;;;;;;;11.60;1.83;;;15.80;57.30;;;;;;5021572;28;20505;-52
2023/10/30 04:07:00;;;;;;;7.85;1.40;;;15.80;57.30;;;;;;5020360;28;20056;-50
2023/10/30 04:09:29;;;;;;;5.45;1.25;;;15.70;57.30;;;;;;5024722;28;20057;-51
2023/10/30 04:11:56;;;;;;;8.93;1.70;;;15.70;57.30;;;;;;5023715;28;20056;-51
2023/10/30 04:14:23;;;;;;;7.88;1.70;;;15.70;57.30;;;;;;5020693;28;20066;-49
2023/10/30 04:16:51;;;;;;;5.82;1.30;;;15.70;57.40;;;;;;5019170;28;20057;-50
2023/10/30 04:19:18;;;;;;;8.57;1.23;;;15.70;57.40;;;;;;5020572;28;20382;-53
2023/10/30 04:21:45;;;;;;;7.82;1.70;;;15.70;57.40;;;;;;5020573;28;20057;-53
2023/10/30 04:24:13;;;;;;;6.32;1.20;;;15.70;57.40;;;;;;5020662;28;20068;-57
2023/10/30 04:26:41;;;;;;;8.55;1.33;;;15.70;57.40;;;;;;5020829;28;20060;-57
2023/10/30 04:29:09;;;;;;;9.15;1.25;;;15.70;57.50;;;;;;5021444;28;20062;-56
2023/10/30 04:31:36;;;;;;;6.75;1.33;;;15.70;57.50;;;;;;5016334;28;20054;-58
2023/10/30 04:34:04;;;;;;;7.43;1.70;;;15.70;57.50;;;;;;5018658;28;20049;-57
2023/10/30 04:36:31;;;;;;;12.88;1.80;;;15.70;57.50;;;;;;5021508;28;20063;-57
2023/10/30 04:38:58;;;;;;;5.68;1.90;;;15.70;57.60;;;;;;5021597;28;20049;-57
2023/10/30 04:41:25;;;;;;;5.88;1.48;;;15.70;57.50;;;;;;5019975;28;20053;-57
2023/10/30 04:43:54;;;;;;;7.85;1.77;;;15.70;57.60;;;;;;5018791;28;20056;-57
2023/10/30 04:46:21;;;;;;;8.70;1.80;;;15.70;57.60;;;;;;5018215;28;20060;-56
2023/10/30 04:48:48;;;;;;;9.35;1.98;;;15.70;57.60;;;;;;5020279;28;20053;-55
2023/10/30 04:51:16;;;;;;;6.78;1.92;;;15.70;57.60;;;;;;5019269;28;20421;-56
2023/10/30 04:53:43;;;;;;;6.50;1.40;;;15.60;57.60;;;;;;5019590;28;20057;-55
2023/10/30 04:56:10;;;;;;;12.00;1.63;;;15.60;57.60;;;;;;5019969;28;20061;-57
2023/10/30 04:58:37;;;;;;;15.18;1.63;;;15.60;57.70;;;;;;5020738;28;20418;-55
2023/10/30 05:01:08;;;;;;;8.98;1.75;;;15.60;57.70;;;;;;5018651;28;21067;-56
2023/10/30 05:03:36;;;;;;;8.07;1.73;;;15.60;57.70;;;;;;5016338;28;20057;-55
2023/10/30 05:06:05;;;;;;;9.35;1.88;;;15.60;57.70;;;;;;5018535;28;20743;-57
2023/10/30 05:08:33;;;;;;;6.65;1.55;;;15.60;57.80;;;;;;5017901;28;20060;-57
2023/10/30 05:11:00;;;;;;;8.63;1.52;;;15.60;57.80;;;;;;5017583;28;20084;-56
2023/10/30 05:13:28;;;;;;;11.40;1.75;;;15.60;57.80;;;;;;5019600;28;20077;-56
2023/10/30 05:15:56;;;;;;;7.43;1.70;;;15.60;57.80;;;;;;5018774;28;20601;-55
2023/10/30 05:18:25;;;;;;;6.45;1.45;;;15.60;57.80;;;;;;5017938;28;20042;-55
2023/10/30 05:20:53;;;;;;;6.45;1.50;;;15.60;57.90;;;;;;5015956;28;20056;-56
2023/10/30 05:23:20;;;;;;;7.63;1.70;;;15.60;58.40;;;;;;5019232;28;20061;-56
2023/10/30 05:25:48;;;;;;;7.35;1.63;;;15.60;57.90;;;;;;5018225;28;20060;-56
2023/10/30 05:28:15;;;;;;;6.22;1.73;;;15.60;58.00;;;;;;5018626;28;20516;-56
2023/10/30 05:30:42;;;;;;;47.15;19.15;;;15.60;58.00;;;;;;5018447;28;20049;-56
2023/10/30 05:33:09;;;;;;;20.55;7.57;;;15.50;58.00;;;;;;5019117;28;20127;-47
2023/10/30 05:35:38;;;;;;;8.55;3.15;;;15.60;58.10;;;;;;5022813;28;20053;-52
2023/10/30 05:38:06;;;;;;;6.28;2.00;;;15.60;58.10;;;;;;5022516;28;20052;-51
2023/10/30 05:40:33;;;;;;;7.57;1.70;;;15.60;58.10;;;;;;5021987;28;20057;-52
2023/10/30 05:43:00;;;;;;;9.07;2.53;;;15.60;58.20;;;;;;5022238;28;20478;-50
2023/10/30 05:45:28;;;;;;;9.48;1.90;;;15.50;58.10;;;;;;5018581;28;20081;-50
2023/10/30 05:47:55;;;;;;;5.30;1.58;;;15.50;58.10;;;;;;5018719;28;20053;-50
2023/10/30 05:50:22;;;;;;;6.72;1.77;;;15.60;58.20;;;;;;5022158;28;21659;-56
2023/10/30 05:52:51;;;;;;;4.70;1.73;;;15.50;58.10;;;;;;5019016;28;20113;-51
2023/10/30 05:55:18;;;;;;;58.35;22.80;;;15.50;58.10;;;;;;5020028;28;20068;-51
2023/10/30 05:57:46;;;;;;;35.17;14.25;;;15.50;58.10;;;;;;5019626;28;20061;-50
2023/10/30 06:00:14;;;;;;;19.58;6.72;;;15.50;58.20;;;;;;5017113;28;20057;-53
2023/10/30 06:02:42;;;;;;;8.32;2.92;;;15.50;58.20;;;;;;5019555;28;20068;-53
2023/10/30 06:05:12;;;;;;;10.65;2.03;;;15.50;58.20;;;;;;5019579;28;20421;-55
2023/10/30 06:07:39;;;;;;;6.65;1.83;;;15.50;58.30;;;;;;5020104;28;20053;-54
2023/10/30 06:10:10;;;;;;;6.50;1.60;;;15.50;58.30;;;;;;5019592;28;20049;-51
2023/10/30 06:12:38;;;;;;;7.80;1.38;;;15.50;58.30;;;;;;5018317;28;20053;-53
2023/10/30 06:15:07;;;;;;;6.20;1.65;;;15.50;58.30;;;;;;5021310;28;20053;-50
2023/10/30 06:17:34;;;;;;;10.68;2.00;;;15.50;58.30;;;;;;5019237;28;20421;-50
2023/10/30 06:20:03;;;;;;;10.80;2.30;;;15.50;58.30;;;;;;5017827;28;20052;-55
2023/10/30 06:22:30;;;;;;;2.97;1.10;;;15.50;58.40;;;;;;5020310;28;20050;-50
2023/10/30 06:24:58;;;;;;;11.65;1.88;;;15.50;58.30;;;;;;5017039;28;20045;-51
2023/10/30 06:27:27;;;;;;;6.45;1.42;;;15.50;58.30;;;;;;5018749;28;20057;-51
2023/10/30 06:29:55;;;;;;;7.32;1.83;;;15.50;58.30;;;;;;5019288;28;20049;-49
2023/10/30 06:32:22;;;;;;;5.75;1.90;;;15.50;58.30;;;;;;5018967;28;20056;-52
2023/10/30 06:34:49;;;;;;;3.40;1.33;;;15.50;58.30;;;;;;5018177;28;20053;-50
2023/10/30 06:37:17;;;;;;;6.97;2.00;;;15.50;58.30;;;;;;5019872;28;20061;-51
2023/10/30 06:39:44;;;;;;;5.28;1.50;;;15.50;58.30;;;;;;5019125;28;20061;-49
2023/10/30 06:42:11;;;;;;;5.78;1.52;;;15.50;58.40;;;;;;5020397;28;20489;-55
2023/10/30 06:44:40;;;;;;;7.85;1.83;;;15.50;58.50;;;;;;5020174;28;20054;-55
2023/10/30 06:47:07;;;;;;;6.25;1.73;;;15.40;58.50;;;;;;5017574;28;20425;-54
2023/10/30 06:49:35;;;;;;;8.13;1.48;;;15.50;58.50;;;;;;5019577;28;20049;-56
2023/10/30 06:52:02;;;;;;;4.10;1.13;;;15.50;58.50;;;;;;5020072;28;20054;-56
2023/10/30 06:54:29;;;;;;;8.52;2.53;;;15.40;58.60;;;;;;5019853;28;20053;-55
2023/10/30 06:56:56;;;;;;;5.80;1.30;;;15.40;58.60;;;;;;5019647;28;20498;-56
2023/10/30 06:59:23;;;;;;;5.97;1.50;;;15.40;58.60;;;;;;5018959;28;20046;-55
2023/10/30 07:01:52;;;;;;;8.88;1.50;;;15.40;58.70;;;;;;5014478;28;20053;-57
2023/10/30 07:04:21;;;;;;;8.65;1.67;;;15.40;58.70;;;;;;5019530;28;20057;-56
2023/10/30 07:06:50;;;;;;;5.82;1.33;;;15.50;58.70;;;;;;5020993;28;20061;-56
2023/10/30 07:09:18;;;;;;;34.63;14.32;;;15.40;58.70;;;;;;5024317;28;20048;-54
2023/10/30 07:11:45;;;;;;;21.30;9.27;;;15.50;58.90;;;;;;5020731;28;20078;-56
2023/10/30 07:14:13;;;;;;;9.98;4.05;;;15.50;58.80;;;;;;5021228;28;20064;-56
2023/10/30 07:16:41;;;;;;;6.28;2.00;;;15.50;58.90;;;;;;5021420;28;20053;-56
2023/10/30 07:19:10;;;;;;;4.85;2.13;;;15.50;58.90;;;;;;5024211;28;20052;-56
2023/10/30 07:21:37;;;;;;;6.10;1.45;;;15.50;58.90;;;;;;5024567;28;20053;-56
2023/10/30 07:24:05;;;;;;;7.43;1.50;;;15.50;58.90;;;;;;5025817;28;20532;-55
2023/10/30 07:26:32;;;;;;;2.80;1.02;;;15.50;58.90;;;;;;5025153;28;20053;-56
2023/10/30 07:28:59;;;;;;;6.75;1.63;;;15.50;58.90;;;;;;5025243;28;20057;-53
2023/10/30 07:31:27;;;;;;;17.75;1.90;;;15.50;58.90;;;;;;5023993;28;20053;-55
2023/10/30 07:33:54;;;;;;;6.63;1.40;;;15.50;59.00;;;;;;5024430;28;20053;-56
2023/10/30 07:36:22;;;;;;;7.65;1.50;;;15.50;59.00;;;;;;5024235;28;20053;-56
2023/10/30 07:38:50;;;;;;;6.00;1.45;;;15.50;59.00;;;;;;5025486;28;20096;-56
2023/10/30 07:41:17;;;;;;;5.25;1.27;;;15.50;59.00;;;;;;5024550;28;20053;-56
2023/10/30 07:43:44;;;;;;;5.20;1.67;;;15.50;59.00;;;;;;5024599;28;20053;-56
2023/10/30 07:46:13;;;;;;;4.22;1.58;;;15.50;59.10;;;;;;5022809;28;20061;-57
2023/10/30 07:48:41;;;;;;;4.22;1.20;;;15.50;59.20;;;;;;5024800;28;20053;-55
2023/10/30 07:51:08;;;;;;;5.32;1.38;;;15.50;59.20;;;;;;5024789;28;20060;-55
2023/10/30 07:53:36;;;;;;;4.75;1.27;;;15.50;59.20;;;;;;5025398;28;20057;-52
2023/10/30 07:56:04;;;;;;;5.70;1.60;;;15.50;59.20;;;;;;5024344;28;20068;-52
2023/10/30 07:58:32;;;;;;;6.78;1.50;;;15.50;59.30;;;;;;5023437;28;20057;-53
2023/10/30 08:00:59;;;;;;;4.60;1.33;;;15.50;59.70;;;;;;5020064;28;20076;-48
2023/10/30 08:03:27;;;;;;;5.15;1.60;;;15.50;59.80;;;;;;5023928;28;20573;-52
2023/10/30 08:05:54;;;;;;;9.48;1.58;;;15.50;59.30;;;;;;5024004;28;20049;-51
2023/10/30 08:08:23;;;;;;;4.15;1.40;;;15.50;59.30;;;;;;5023866;28;20492;-48
2023/10/30 08:10:51;;;;;;;3.97;1.20;;;15.60;59.40;;;;;;5024219;28;20076;-51
2023/10/30 08:13:18;;;;;;;2.70;1.13;;;15.60;59.40;;;;;;5023427;28;20061;-52
2023/10/30 08:15:46;;;;;;;3.15;1.27;;;15.60;59.40;;;;;;5022754;28;20525;-51
2023/10/30 08:18:13;;;;;;;4.13;1.30;;;15.60;59.50;;;;;;5024815;28;20064;-50
2023/10/30 08:20:40;;;;;;;3.90;1.38;;;15.60;59.60;;;;;;5024436;28;20084;-52
2023/10/30 08:23:08;;;;;;;6.10;1.70;;;15.60;59.60;;;;;;5024592;28;20080;-55
2023/10/30 08:25:35;;;;;;;11.48;1.75;;;15.60;59.60;;;;;;5023777;28;20057;-52
2023/10/30 08:28:04;;;;;;;8.35;1.33;;;15.60;59.70;;;;;;5024683;28;20065;-48
2023/10/30 08:30:31;;;;;;;2.13;1.02;;;15.60;59.70;;;;;;5023177;28;20433;-54
2023/10/30 08:33:00;;;;;;;5.40;1.13;;;15.60;59.80;;;;;;5024081;28;20057;-48
2023/10/30 08:35:27;;;;;;;4.63;1.35;;;15.70;59.80;;;;;;5024066;28;20415;-47
2023/10/30 08:37:55;;;;;;;2.28;1.00;;;15.70;59.80;;;;;;5024194;28;20061;-50
2023/10/30 08:40:23;;;;;;;5.78;1.65;;;15.70;59.80;;;;;;5023249;28;20414;-53
2023/10/30 08:42:50;;;;;;;5.47;1.33;;;15.70;59.90;;;;;;5023952;28;20057;-50
2023/10/30 08:45:19;;;;;;;4.70;1.30;;;15.80;59.90;;;;;;5024596;28;20053;-51
2023/10/30 08:47:46;;;;;;;4.88;1.20;;;15.80;60.00;;;;;;5023168;28;20068;-51
2023/10/30 08:50:13;;;;;;;3.65;1.40;;;15.80;59.90;;;;;;5022971;28;20494;-49
2023/10/30 08:52:41;;;;;;;6.15;1.02;;;15.80;59.90;;;;;;5023156;28;20064;-50
2023/10/30 08:55:09;;;;;;;6.97;1.10;;;15.90;59.90;;;;;;5023852;28;20062;-55
2023/10/30 08:57:36;;;;;;;10.57;1.20;;;15.90;60.00;;;;;;5023226;28;20057;-52
2023/10/30 09:00:06;;;;;;;4.00;1.05;;;16.00;60.00;;;;;;5024455;28;20490;-52
2023/10/30 09:02:35;;;;;;;0.88;0.60;;;16.00;60.00;;;;;;5022394;28;20057;-56
2023/10/30 09:05:03;;;;;;;2.88;0.77;;;16.00;59.90;;;;;;5022573;28;20053;-55
2023/10/30 09:07:31;;;;;;;2.05;0.90;;;16.00;59.80;;;;;;5022550;28;20053;-55
2023/10/30 09:09:58;;;;;;;3.53;1.20;;;16.10;59.90;;;;;;5022521;28;20057;-56
2023/10/30 09:12:25;;;;;;;4.28;0.60;;;16.10;59.90;;;;;;5023374;28;20061;-54
2023/10/30 09:14:52;;;;;;;3.58;0.65;;;16.20;59.80;;;;;;5022731;28;20049;-56
2023/10/30 09:17:20;;;;;;;2.03;0.93;;;16.30;59.80;;;;;;5021658;28;20049;-57
2023/10/30 09:19:49;;;;;;;19.23;11.32;;;16.30;59.60;;;;;;5022216;28;20054;-56
2023/10/30 09:22:16;;;;;;;28.77;14.25;;;16.40;59.60;;;;;;5022735;28;20057;-56
2023/10/30 09:24:43;;;;;;;4.88;2.45;;;16.40;59.60;;;;;;5022446;28;20080;-56
2023/10/30 09:27:10;;;;;;;2.53;1.38;;;16.40;59.60;;;;;;5022803;28;20532;-56
2023/10/30 09:29:38;;;;;;;3.70;1.42;;;16.40;59.40;;;;;;5022175;28;20057;-54
2023/10/30 09:32:06;;;;;;;3.95;1.08;;;16.50;59.50;;;;;;5021163;28;20050;-55
2023/10/30 09:34:34;;;;;;;2.17;0.93;;;16.50;59.40;;;;;;5022000;28;20045;-55
2023/10/30 09:37:03;;;;;;;3.78;0.70;;;16.60;59.30;;;;;;5021694;28;20060;-55
2023/10/30 09:39:30;;;;;;;4.45;1.00;;;16.60;59.30;;;;;;5023000;28;20057;-56
2023/10/30 09:42:00;;;;;;;1.45;0.57;;;16.70;59.30;;;;;;5022643;28;20049;-56
2023/10/30 09:44:29;;;;;;;1.00;0.40;;;16.70;59.20;;;;;;5022255;28;20409;-56
2023/10/30 09:46:57;;;;;;;1.35;0.47;;;16.80;59.10;;;;;;5020743;28;20061;-54
2023/10/30 09:49:28;;;;;;;1.75;0.50;;;16.80;58.90;;;;;;5022239;28;20069;-56
2023/10/30 09:51:57;;;;;;;2.53;0.60;;;16.80;58.90;;;;;;5021295;28;20049;-54
2023/10/30 09:54:28;;;;;;;1.85;0.60;;;16.90;58.80;;;;;;5022697;28;20065;-55
2023/10/30 09:56:56;;;;;;;0.30;0.30;;;16.90;58.80;;;;;;5022222;28;20064;-56
2023/10/30 09:59:24;;;;;;;1.00;0.40;;;16.90;58.70;;;;;;5021971;28;20060;-56
2023/10/30 10:01:51;;;;;;;1.10;0.40;;;17.00;58.50;;;;;;5020294;28;20494;-55
2023/10/30 10:04:18;;;;;;;1.05;0.30;;;17.00;58.60;;;;;;5021808;28;20053;-55
2023/10/30 10:06:46;;;;;;;0.85;0.28;;;17.10;58.50;;;;;;5021484;28;20060;-55
2023/10/30 10:09:14;;;;;;;0.68;0.40;;;17.20;58.50;;;;;;5022299;28;20057;-56
2023/10/30 10:11:43;;;;;;;0.40;0.25;;;17.20;58.30;;;;;;5020987;28;20053;-56
2023/10/30 10:14:11;;;;;;;2.15;0.35;;;17.30;58.10;;;;;;5021363;28;20517;-56
2023/10/30 10:16:38;;;;;;;0.68;0.20;;;17.40;58.00;;;;;;5020265;28;20057;-56
2023/10/30 10:19:20;;;;;;;1.25;0.40;;;17.40;57.90;;;;;;5021725;28;20058;-56
2023/10/30 10:21:49;;;;;;;0.38;0.20;;;17.50;58.30;;;;;;5021487;28;20410;-55
2023/10/30 10:24:32;;;;;;;0.32;0.20;;;17.60;57.70;;;;;;5022595;28;20053;-55
2023/10/30 10:27:04;;;;;;;2.13;0.40;;;17.60;57.40;;;;;;5021007;28;20054;-56
2023/10/30 10:29:31;;;;;;;0.82;0.40;;;17.70;57.40;;;;;;5019687;28;20061;-55
2023/10/30 10:31:58;;;;;;;1.70;0.43;;;17.70;57.30;;;;;;5020476;28;20064;-45
2023/10/30 10:34:29;;;;;;;1.65;0.50;;;17.80;57.30;;;;;;5022127;28;20057;-56
2023/10/30 10:36:59;;;;;;;1.33;0.43;;;17.80;57.10;;;;;;5021092;28;20061;-55
2023/10/30 10:39:26;;;;;;;4.90;0.60;;;17.80;56.80;;;;;;5021442;28;20056;-55
2023/10/30 10:41:55;;;;;;;4.43;0.30;;;17.80;56.60;;;;;;5020291;28;20041;-56
2023/10/30 10:44:25;;;;;;;3.80;0.30;;;17.90;56.60;;;;;;5021302;28;20501;-56
2023/10/30 10:46:56;;;;;;;0.52;0.38;;;17.90;56.50;;;;;;5019582;28;20060;-55
2023/10/30 10:49:23;;;;;;;0.98;0.30;;;17.90;56.40;;;;;;5021363;28;20410;-58
2023/10/30 10:51:51;;;;;;;3.63;0.60;;;17.90;56.40;;;;;;5020794;28;20057;-56
2023/10/30 10:54:24;;;;;;;2.08;0.60;;;17.90;56.50;;;;;;5021520;28;20061;-56
2023/10/30 10:56:54;;;;;;;0.50;0.20;;;17.90;56.60;;;;;;5020786;28;20524;-56
2023/10/30 10:59:26;;;;;;;2.00;0.65;;;18.00;56.90;;;;;;5021419;28;20529;-55
2023/10/30 11:01:56;;;;;;;2.55;0.50;;;18.00;56.80;;;;;;5019077;28;20056;-58
2023/10/30 11:04:24;;;;;;;0.60;0.40;;;18.00;56.80;;;;;;5020821;28;20053;-58
2023/10/30 11:06:58;;;;;;;1.85;0.45;;;18.00;56.70;;;;;;5019869;28;20068;-55
2023/10/30 11:09:29;;;;;;;;;;;18.10;56.60;;;;;;5021512;28;20498;-56
2023/10/30 11:12:06;;;;;;;1.38;0.25;;;18.10;56.70;;;;;;5019942;28;19928;-58
2023/10/30 11:14:43;;;;;;;2.08;0.28;;;18.10;56.30;;;;;;5020482;28;20061;-57
2023/10/30 11:17:11;;;;;;;1.13;0.20;;;18.20;56.20;;;;;;5019334;28;20049;-56
2023/10/30 11:19:38;;;;;;;3.40;0.30;;;18.20;56.20;;;;;;5020528;28;20056;-55
2023/10/30 11:22:05;;;;;;;0.65;0.30;;;18.20;56.20;;;;;;5020871;28;20057;-57
2023/10/30 11:24:37;;;;;;;1.55;0.30;;;18.10;56.20;;;;;;5020967;28;20401;-57
2023/10/30 11:27:39;;;;;;;1.25;0.52;;;18.10;56.20;;;;;;5020473;28;20058;-56
2023/10/30 11:30:11;;;;;;;0.95;0.43;;;18.10;56.20;;;;;;5020147;28;20057;-56
2023/10/30 11:32:52;;;;;;;0.90;0.30;;;18.10;56.20;;;;;;5019879;28;20049;-56
2023/10/30 11:35:23;;;;;;;1.38;0.45;;;18.20;56.30;;;;;;5019435;28;20061;-56
2023/10/30 11:37:51;;;;;;;0.50;0.20;;;18.20;56.40;;;;;;5019861;28;20049;-53
2023/10/30 11:40:19;;;;;;;0.60;0.32;;;18.20;56.40;;;;;;5020382;28;20049;-56
2023/10/30 11:42:46;;;;;;;0.82;0.40;;;18.20;56.40;;;;;;5020759;28;20065;-56
2023/10/30 11:45:23;;;;;;;2.08;0.30;;;18.20;56.40;;;;;;5018998;28;20133;-57
2023/10/30 11:47:58;;;;;;;1.40;0.30;;;18.20;56.40;;;;;;5020188;28;20061;-56
2023/10/30 11:50:27;;;;;;;7.45;0.60;;;18.20;56.30;;;;;;5020713;28;20413;-56
2023/10/30 11:52:58;;;;;;;1.27;0.40;;;18.20;56.40;;;;;;5023457;28;20058;-56
2023/10/30 11:55:28;;;;;;;1.20;0.30;;;18.20;56.50;;;;;;5023149;28;21162;-55
2023/10/30 11:57:58;;;;;;;0.85;0.20;;;18.20;56.70;;;;;;5023918;28;20060;-56
2023/10/30 12:00:27;;;;;;;2.15;0.40;;;18.30;56.60;;;;;;5023646;28;20060;-56
2023/10/30 12:02:55;;;;;;;0.75;0.40;;;18.30;56.50;;;;;;5023708;28;20057;-56
2023/10/30 12:05:25;;;;;;;1.17;0.30;;;18.30;56.50;;;;;;5023355;28;20053;-55
2023/10/30 12:07:52;;;;;;;13.00;0.73;;;18.30;56.50;;;;;;5024258;28;20049;-56
2023/10/30 12:10:20;;;;;;;1.45;0.47;;;18.30;56.30;;;;;;5024041;28;20505;-56
2023/10/30 12:12:47;;;;;;;0.88;0.38;;;18.40;56.30;;;;;;5024972;28;20405;-55
2023/10/30 12:15:15;;;;;;;1.98;0.20;;;18.30;56.20;;;;;;5023181;28;20505;-55
2023/10/30 12:17:45;;;;;;;0.10;0.10;;;18.40;56.20;;;;;;5023530;28;20528;-57
2023/10/30 12:20:12;;;;;;;0.88;0.40;;;18.40;56.00;;;;;;5023596;28;20425;-56
2023/10/30 12:22:42;;;;;;;1.27;0.30;;;18.40;56.00;;;;;;5023139;28;20060;-56
2023/10/30 12:25:09;;;;;;;0.17;0.13;;;18.40;56.00;;;;;;5024002;28;20053;-56
2023/10/30 12:27:37;;;;;;;0.40;0.20;;;18.40;56.00;;;;;;5024626;28;20084;-56
2023/10/30 12:30:11;;;;;;;0.90;0.30;;;18.40;55.90;;;;;;5022768;28;20509;-56
2023/10/30 12:32:38;;;;;;;1.00;0.43;;;18.40;55.80;;;;;;5022586;28;20057;-56
2023/10/30 12:35:11;;;;;;;3.53;0.38;;;18.40;55.80;;;;;;5023586;28;20386;-54
2023/10/30 12:37:39;;;;;;;0.80;0.20;;;18.40;55.70;;;;;;5022838;28;20053;-48
2023/10/30 12:40:08;;;;;;;0.50;0.30;;;18.40;55.70;;;;;;5023571;28;20060;-48
2023/10/30 12:42:37;;;;;;;1.00;0.32;;;18.40;55.70;;;;;;5024791;28;20053;-52
2023/10/30 12:45:09;;;;;;;3.83;1.08;;;18.30;55.70;;;;;;5022778;28;20057;-52
2023/10/30 12:47:36;;;;;;;0.40;0.30;;;18.30;55.60;;;;;;5023371;28;20398;-54
2023/10/30 12:50:04;;;;;;;0.75;0.30;;;18.30;55.60;;;;;;5023221;28;20061;-50